Time;durP1;ratioP1;P1;durP2;ratioP2;P2;SDS_P1;SDS_P2;PMS_P1;PMS_P2;Temp;Humidity;BMP_temperature;BMP_pressure;BME280_temperature;BME280_humidity;BME280_pressure;Samples;Min_cycle;Max_cycle;Signal;HPM_P1;HPM_P2
2022/06/28 00:02:03;;;;;;;2.37;0.70;;;;;;;20.09;65.83;101109.78;5013275;28;20217;-66
2022/06/28 00:04:33;;;;;;;3.37;0.67;;;;;;;19.90;66.56;101117.47;5012742;28;20292;-65
2022/06/28 00:07:00;;;;;;;2.23;0.60;;;;;;;19.88;66.56;101119.53;5012046;28;20685;-66
2022/06/28 00:09:28;;;;;;;3.87;0.90;;;;;;;19.95;66.40;101119.63;5017762;28;20235;-66
2022/06/28 00:11:56;;;;;;;1.50;0.83;;;;;;;20.01;66.29;101123.38;5020878;28;20288;-66
2022/06/28 00:17:09;;;;;;;1.40;0.90;;;;;;;19.76;67.28;101122.94;5019107;28;20247;-65
2022/06/28 00:19:38;;;;;;;4.50;0.70;;;;;;;19.79;67.67;101120.69;5015686;28;20269;-65
2022/06/28 00:22:06;;;;;;;3.40;0.70;;;;;;;19.85;67.25;101119.09;5011666;28;20224;-65
2022/06/28 00:24:34;;;;;;;1.53;0.70;;;;;;;19.85;66.69;101119.94;5012093;28;20214;-65
2022/06/28 00:27:02;;;;;;;4.20;0.80;;;;;;;19.74;67.40;101117.75;5011819;28;20382;-64
2022/06/28 00:29:29;;;;;;;2.00;0.73;;;;;;;19.65;67.52;101123.44;5010936;28;20228;-65
2022/06/28 00:31:57;;;;;;;0.97;0.70;;;;;;;19.60;67.69;101115.13;5009206;28;20230;-65
2022/06/28 00:34:25;;;;;;;2.93;0.80;;;;;;;19.59;68.24;101117.00;4995161;28;20219;-65
2022/06/28 00:36:54;;;;;;;2.73;0.90;;;;;;;19.67;68.11;101116.03;5020787;28;20575;-65
2022/06/28 00:39:22;;;;;;;2.93;1.10;;;;;;;19.68;68.13;101115.84;5016269;28;20208;-65
2022/06/28 00:41:50;;;;;;;0.70;0.60;;;;;;;19.73;67.83;101121.47;5022770;28;20215;-65
2022/06/28 00:44:18;;;;;;;1.67;0.83;;;;;;;19.78;67.73;101124.44;5011766;28;20209;-65
2022/06/28 00:46:48;;;;;;;2.70;0.60;;;;;;;19.82;67.23;101125.69;5011852;28;20235;-65
2022/06/28 00:49:16;;;;;;;1.10;0.70;;;;;;;19.86;67.40;101118.91;5021007;28;20300;-65
2022/06/28 00:51:43;;;;;;;2.20;0.97;;;;;;;19.83;67.15;101130.06;5021117;28;20229;-65
2022/06/28 00:54:13;;;;;;;3.97;0.87;;;;;;;19.82;66.91;101135.63;5019082;28;20634;-66
2022/06/28 00:56:41;;;;;;;3.13;1.07;;;;;;;19.76;67.89;101131.84;5027744;28;20320;-66
2022/06/28 00:59:09;;;;;;;2.17;0.80;;;;;;;19.71;68.22;101130.75;5031469;28;20218;-65
2022/06/28 01:01:36;;;;;;;1.93;0.80;;;;;;;19.73;68.38;101139.47;5035061;28;20286;-66
2022/06/28 01:04:05;;;;;;;3.37;1.20;;;;;;;19.73;68.20;101137.59;5022273;28;20204;-65
2022/06/28 01:06:33;;;;;;;2.63;0.90;;;;;;;19.74;68.14;101139.28;5030209;28;20582;-65
2022/06/28 01:09:01;;;;;;;2.87;1.03;;;;;;;19.73;67.59;101139.47;5031718;28;20231;-65
2022/06/28 01:11:30;;;;;;;2.87;0.77;;;;;;;19.64;67.39;101146.81;5036176;28;20533;-65
2022/06/28 01:14:00;;;;;;;1.20;0.73;;;;;;;19.57;67.45;101143.25;5030899;28;20240;-65
2022/06/28 01:16:28;;;;;;;4.50;1.10;;;;;;;19.53;67.92;101141.94;5030484;28;20205;-65
2022/06/28 01:18:57;;;;;;;7.37;1.00;;;;;;;19.48;68.26;101142.53;5030111;28;20224;-65
2022/06/28 01:21:27;;;;;;;5.13;1.00;;;;;;;19.50;68.20;101142.34;5037717;28;20745;-65
2022/06/28 01:23:57;;;;;;;3.93;1.20;;;;;;;19.50;68.05;101134.28;5036773;28;20219;-65
2022/06/28 01:26:26;;;;;;;2.77;0.87;;;;;;;19.47;68.48;101137.28;5037692;28;20236;-65
2022/06/28 01:28:54;;;;;;;4.53;1.33;;;;;;;19.47;68.80;101137.28;5037240;28;20222;-65
2022/06/28 01:31:23;;;;;;;1.53;0.97;;;;;;;19.45;69.03;101139.34;5037193;28;20235;-65
2022/06/28 01:33:53;;;;;;;2.07;0.97;;;;;;;19.44;68.79;101140.34;5025404;28;20213;-65
2022/06/28 01:36:21;;;;;;;1.63;1.03;;;;;;;19.37;69.08;101144.84;5032173;28;20292;-67
2022/06/28 01:38:51;;;;;;;4.63;0.97;;;;;;;19.26;69.26;101148.84;5035465;28;20249;-65
2022/06/28 01:44:05;;;;;;;3.23;0.80;;;;;;;19.15;70.01;101144.78;5018757;28;20216;-65
2022/06/28 01:46:34;;;;;;;2.73;1.00;;;;;;;19.18;70.26;101151.63;5036787;28;20258;-65
2022/06/28 01:49:02;;;;;;;1.90;1.03;;;;;;;19.23;70.00;101151.09;5022084;28;20345;-65
2022/06/28 01:51:30;;;;;;;3.57;1.23;;;;;;;19.26;69.71;101151.53;5034851;28;20697;-65
2022/06/28 01:53:57;;;;;;;1.40;0.67;;;;;;;19.26;69.73;101150.72;5028364;28;20632;-65
2022/06/28 01:56:27;;;;;;;2.77;1.37;;;;;;;19.21;70.06;101153.94;5009239;28;20565;-65
2022/06/28 01:58:55;;;;;;;2.47;1.07;;;;;;;19.17;70.15;101156.16;5017033;28;20247;-65
2022/06/28 02:01:23;;;;;;;4.50;0.80;;;;;;;19.19;70.07;101150.63;5015662;28;20205;-65
2022/06/28 02:03:52;;;;;;;1.97;1.00;;;;;;;19.19;69.72;101161.38;5015666;28;20610;-65
2022/06/28 02:06:20;;;;;;;2.77;1.30;;;;;;;19.22;69.52;101154.78;5016421;28;20205;-65
2022/06/28 02:08:47;;;;;;;1.43;0.80;;;;;;;19.20;69.67;101154.97;5016949;28;20209;-66
2022/06/28 02:11:15;;;;;;;5.27;0.90;;;;;;;19.12;69.75;101149.69;5017078;28;20237;-65
2022/06/28 02:13:44;;;;;;;2.13;1.10;;;;;;;19.11;69.83;101154.25;5016016;28;20294;-65
2022/06/28 02:16:12;;;;;;;3.03;0.70;;;;;;;19.08;69.40;101148.44;5016765;28;20296;-65
2022/06/28 02:18:39;;;;;;;2.10;0.97;;;;;;;18.99;69.86;101147.69;5007015;28;20651;-65
2022/06/28 02:21:07;;;;;;;6.50;0.90;;;;;;;18.94;69.98;101152.78;4997728;28;20209;-66
2022/06/28 02:23:35;;;;;;;2.63;1.10;;;;;;;18.96;69.95;101150.75;5013211;28;20218;-66
2022/06/28 02:26:03;;;;;;;1.70;0.90;;;;;;;18.96;70.51;101150.75;5013812;28;20217;-66
2022/06/28 02:28:31;;;;;;;5.63;1.30;;;;;;;18.94;70.38;101158.16;5014101;28;20288;-65
2022/06/28 02:31:00;;;;;;;1.93;1.00;;;;;;;18.95;70.39;101154.44;5014003;28;20268;-66
2022/06/28 02:33:28;;;;;;;1.30;0.70;;;;;;;18.97;69.84;101152.41;5012036;28;20210;-66
2022/06/28 02:41:40;;;;;;;3.03;1.10;;;;;;;18.91;70.63;101153.13;4940843;29;20572;-66
2022/06/28 02:44:09;;;;;;;2.30;1.07;;;;;;;18.94;70.25;101147.41;4978095;28;20201;-66
2022/06/28 02:46:38;;;;;;;2.20;1.03;;;;;;;18.91;70.33;101153.13;5013041;28;20212;-65
2022/06/28 02:49:06;;;;;;;4.77;1.17;;;;;;;18.84;70.87;101162.13;5003812;28;20218;-65
2022/06/28 02:51:34;;;;;;;4.37;1.27;;;;;;;18.78;71.38;101153.81;5012759;28;20572;-65
2022/06/28 02:54:02;;;;;;;2.97;1.00;;;;;;;18.77;71.45;101162.03;5012766;28;20577;-67
2022/06/28 02:56:30;;;;;;;4.23;1.13;;;;;;;18.72;71.34;101164.47;5012931;28;20675;-65
2022/06/28 02:58:58;;;;;;;3.30;1.17;;;;;;;18.65;71.65;101158.97;4999926;28;20240;-65
2022/06/28 03:01:26;;;;;;;3.40;1.30;;;;;;;18.57;71.92;101161.75;5013161;28;20267;-64
2022/06/28 03:03:55;;;;;;;1.77;1.17;;;;;;;18.55;71.83;101169.13;5006009;28;20616;-67
2022/06/28 03:06:22;;;;;;;2.37;1.13;;;;;;;18.54;71.63;101172.00;5002745;28;20213;-65
2022/06/28 03:08:50;;;;;;;2.23;1.20;;;;;;;18.55;71.63;101171.81;5012866;28;20206;-67
2022/06/28 03:11:18;;;;;;;2.70;1.13;;;;;;;18.55;71.48;101171.81;5022807;28;20276;-65
2022/06/28 03:13:46;;;;;;;3.80;1.03;;;;;;;18.56;71.36;101176.16;5010723;28;20217;-66
2022/06/28 03:16:14;;;;;;;2.07;1.00;;;;;;;18.53;71.51;101175.69;5012980;28;20233;-66
2022/06/28 03:18:41;;;;;;;3.10;1.20;;;;;;;18.47;71.66;101179.94;5003540;28;20245;-66
2022/06/28 03:21:10;;;;;;;3.80;1.20;;;;;;;18.48;71.96;101184.28;5000803;28;20300;-64
2022/06/28 03:23:38;;;;;;;5.70;1.13;;;;;;;18.46;72.01;101190.88;5013132;28;20217;-64
2022/06/28 03:26:06;;;;;;;2.60;0.90;;;;;;;18.46;72.11;101189.03;5014192;28;20218;-64
2022/06/28 03:28:34;;;;;;;2.47;1.20;;;;;;;18.44;72.46;101199.13;5013375;28;20730;-65
2022/06/28 03:31:01;;;;;;;2.07;1.27;;;;;;;18.40;72.51;101193.25;5011804;28;20236;-64
2022/06/28 03:33:29;;;;;;;5.87;1.50;;;;;;;18.46;72.18;101197.09;5005697;28;20301;-64
2022/06/28 03:35:57;;;;;;;2.27;1.37;;;;;;;18.47;72.43;101205.97;5008927;28;20608;-64
2022/06/28 03:38:26;;;;;;;3.97;1.47;;;;;;;18.48;72.37;101210.31;5012228;28;20300;-64
2022/06/28 03:40:54;;;;;;;4.13;1.40;;;;;;;18.49;72.78;101209.28;5012968;28;20223;-65
2022/06/28 03:43:22;;;;;;;3.87;1.30;;;;;;;18.49;72.33;101206.59;5011350;28;20211;-64
2022/06/28 03:45:49;;;;;;;3.27;1.40;;;;;;;18.45;72.32;101211.53;5012149;28;20232;-65
2022/06/28 03:48:17;;;;;;;1.90;1.33;;;;;;;18.44;72.26;101209.84;5010137;28;20209;-64
2022/06/28 03:50:47;;;;;;;2.23;1.20;;;;;;;18.48;72.58;101218.38;5004227;28;20224;-65
2022/06/28 03:53:15;;;;;;;10.33;1.60;;;;;;;18.49;72.46;101211.97;5011458;28;20283;-64
2022/06/28 03:55:44;;;;;;;2.73;1.40;;;;;;;18.53;72.51;101213.31;5011732;28;20261;-64
2022/06/28 03:58:12;;;;;;;2.20;1.20;;;;;;;18.51;72.54;101210.78;5012291;28;20210;-65
2022/06/28 04:00:40;;;;;;;4.27;1.20;;;;;;;18.53;72.22;101213.31;5011464;28;20213;-65
2022/06/28 04:03:07;;;;;;;3.40;1.60;;;;;;;18.55;72.47;101217.47;5006213;28;20210;-65
2022/06/28 04:05:35;;;;;;;1.57;1.03;;;;;;;18.57;72.04;101222.69;5001857;28;20206;-65
2022/06/28 04:08:03;;;;;;;1.90;1.10;;;;;;;18.59;72.21;101224.19;5012203;28;20213;-64
2022/06/28 04:10:31;;;;;;;5.23;1.30;;;;;;;18.58;72.78;101233.25;5011998;28;20300;-64
2022/06/28 04:13:00;;;;;;;5.20;1.33;;;;;;;18.51;72.75;101220.69;5010780;28;20320;-65
2022/06/28 04:15:28;;;;;;;6.57;1.40;;;;;;;18.48;73.16;101227.25;5011711;28;20205;-64
2022/06/28 04:17:55;;;;;;;2.57;1.40;;;;;;;18.52;73.15;101225.06;5011645;28;20214;-65
2022/06/28 04:20:24;;;;;;;3.20;1.50;;;;;;;18.48;73.56;101215.69;5010990;28;20209;-65
2022/06/28 04:22:51;;;;;;;2.50;1.40;;;;;;;18.45;74.01;101224.97;5010358;28;20434;-65
2022/06/28 04:25:19;;;;;;;4.17;1.97;;;;;;;18.55;73.35;101235.44;5011416;28;20717;-65
2022/06/28 04:27:47;;;;;;;5.97;1.30;;;;;;;18.62;73.19;101234.56;5012376;28;20255;-65
2022/06/28 04:30:16;;;;;;;3.30;1.53;;;;;;;18.65;73.78;101227.97;5012020;28;20243;-65
2022/06/28 04:32:44;;;;;;;6.83;1.83;;;;;;;18.65;74.24;101231.50;5010811;28;20685;-65
2022/06/28 04:35:13;;;;;;;3.63;1.63;;;;;;;18.63;74.03;101230.88;5012156;28;20201;-65
2022/06/28 04:37:41;;;;;;;3.53;1.53;;;;;;;18.65;73.96;101228.81;5013430;28;20252;-65
2022/06/28 04:40:09;;;;;;;3.43;1.27;;;;;;;18.64;73.69;101227.16;5011327;28;20702;-65
2022/06/28 04:42:37;;;;;;;16.13;5.33;;;;;;;18.69;73.71;101229.28;5010909;28;20299;-65
2022/06/28 04:45:08;;;;;;;6.80;2.00;;;;;;;18.71;73.96;101229.94;5011247;28;20309;-65
2022/06/28 04:47:37;;;;;;;4.17;1.90;;;;;;;18.72;73.63;101231.63;5011892;28;20293;-64
2022/06/28 04:50:06;;;;;;;6.97;1.90;;;;;;;18.71;74.24;101227.25;5010214;28;20232;-64
2022/06/28 04:52:34;;;;;;;3.10;1.90;;;;;;;18.72;74.43;101223.56;5010602;28;20244;-65
2022/06/28 04:55:01;;;;;;;2.77;1.40;;;;;;;18.80;73.75;101226.16;5010411;28;20300;-65
2022/06/28 04:57:29;;;;;;;3.90;2.17;;;;;;;18.84;73.56;101222.09;5010261;28;20218;-65
2022/06/28 04:59:57;;;;;;;3.80;1.90;;;;;;;18.86;73.68;101225.44;5010929;28;20231;-65
2022/06/28 05:02:25;;;;;;;4.13;2.17;;;;;;;18.87;73.44;101227.09;5019393;28;20296;-65
2022/06/28 05:04:54;;;;;;;6.23;2.20;;;;;;;18.92;73.47;101219.31;5006787;28;20259;-65
2022/06/28 05:07:22;;;;;;;6.97;2.40;;;;;;;18.93;73.89;101226.34;5010133;28;20205;-65
2022/06/28 05:09:49;;;;;;;3.80;2.00;;;;;;;18.97;74.07;101222.28;5010849;28;20209;-65
2022/06/28 05:12:17;;;;;;;5.50;2.60;;;;;;;18.99;73.91;101225.63;5017177;28;20296;-65
2022/06/28 05:14:50;;;;;;;8.00;3.37;;;;;;;19.03;74.21;101226.09;5016990;28;20241;-65
2022/06/28 05:17:18;;;;;;;6.80;4.10;;;;;;;19.10;74.00;101222.47;5018764;28;20303;-65
2022/06/28 05:19:46;;;;;;;4.47;3.13;;;;;;;19.18;74.00;101219.69;5018173;28;20233;-65
2022/06/28 05:22:15;;;;;;;8.03;4.00;;;;;;;19.25;73.97;101214.41;5009801;28;20205;-65
2022/06/28 05:24:43;;;;;;;7.13;3.50;;;;;;;19.31;73.71;101212.81;5010530;28;20213;-65
2022/06/28 05:27:11;;;;;;;10.60;3.37;;;;;;;19.32;73.38;101211.81;5010297;28;20205;-66
2022/06/28 05:29:39;;;;;;;8.83;3.50;;;;;;;19.38;72.84;101219.13;5009927;28;20213;-64
2022/06/28 05:32:09;;;;;;;5.40;3.10;;;;;;;19.43;72.49;101217.56;5010893;28;20229;-64
2022/06/28 05:34:36;;;;;;;6.67;4.00;;;;;;;19.46;72.60;101222.53;5009602;28;20229;-65
2022/06/28 05:37:05;;;;;;;5.77;3.70;;;;;;;19.43;73.13;101219.41;5004890;28;20248;-64
2022/06/28 05:39:34;;;;;;;9.17;4.00;;;;;;;19.48;72.78;101214.31;5010184;28;20292;-64
2022/06/28 05:42:02;;;;;;;6.40;3.33;;;;;;;19.54;72.97;101205.47;5009928;28;20294;-65
2022/06/28 05:44:29;;;;;;;7.03;3.70;;;;;;;19.61;73.38;101214.50;5009795;28;20208;-65
2022/06/28 05:46:57;;;;;;;8.47;3.80;;;;;;;19.68;72.67;101210.00;5010684;28;20674;-64
2022/06/28 05:49:25;;;;;;;8.87;4.13;;;;;;;19.72;71.71;101208.59;5009607;28;20641;-65
2022/06/28 05:51:53;;;;;;;9.07;5.00;;;;;;;19.76;71.40;101212.59;5009901;28;20212;-65
2022/06/28 05:54:20;;;;;;;8.70;4.10;;;;;;;19.82;70.69;101216.34;5007680;28;20221;-65
2022/06/28 05:56:50;;;;;;;8.37;4.60;;;;;;;19.89;70.60;101217.25;5019004;28;20340;-65
2022/06/28 05:59:17;;;;;;;11.10;4.13;;;;;;;19.90;70.81;101216.25;5013630;28;20234;-65
2022/06/28 06:01:45;;;;;;;8.53;4.30;;;;;;;19.94;70.58;101211.31;5013705;28;20718;-65
2022/06/28 06:04:13;;;;;;;12.13;4.87;;;;;;;19.99;69.95;101222.34;5012812;28;20341;-65
2022/06/28 06:06:41;;;;;;;8.63;4.50;;;;;;;20.02;69.76;101216.56;5013468;28;20210;-65
2022/06/28 06:09:09;;;;;;;6.83;4.30;;;;;;;20.03;69.50;101212.88;5010310;28;20296;-65
2022/06/28 06:11:37;;;;;;;7.73;4.40;;;;;;;20.03;69.74;101210.16;5013985;28;20217;-65
2022/06/28 06:14:06;;;;;;;7.30;4.23;;;;;;;20.06;69.90;101213.28;5012619;28;20332;-65
2022/06/28 06:16:34;;;;;;;11.17;4.23;;;;;;;20.09;70.07;101217.47;5013234;28;20607;-66
2022/06/28 06:19:01;;;;;;;8.73;3.60;;;;;;;20.12;69.73;101222.47;5009571;28;20308;-65
2022/06/28 06:21:29;;;;;;;8.33;4.13;;;;;;;20.14;70.24;101220.44;5013151;28;20205;-65
2022/06/28 06:23:57;;;;;;;12.20;4.77;;;;;;;20.23;69.99;101219.25;5013008;28;20328;-64
2022/06/28 06:26:25;;;;;;;7.57;3.93;;;;;;;20.23;69.35;101217.41;5013299;28;20632;-65
2022/06/28 06:28:53;;;;;;;5.60;3.90;;;;;;;20.25;69.45;101217.22;5012887;28;20208;-65
2022/06/28 06:31:22;;;;;;;12.43;4.07;;;;;;;20.32;69.18;101218.09;5012857;28;20608;-65
2022/06/28 06:33:51;;;;;;;11.00;4.23;;;;;;;20.34;68.72;101216.06;5011503;28;20233;-65
2022/06/28 06:36:19;;;;;;;7.60;3.97;;;;;;;20.44;68.34;101215.75;5012961;28;20239;-66
2022/06/28 06:38:47;;;;;;;7.63;3.70;;;;;;;20.51;67.58;101216.63;5013049;28;20209;-66
2022/06/28 06:41:14;;;;;;;9.77;3.67;;;;;;;20.59;67.47;101220.00;5013367;28;20219;-66
2022/06/28 06:43:42;;;;;;;10.60;3.53;;;;;;;20.65;67.01;101218.41;5012910;28;20210;-65
2022/06/28 06:46:10;;;;;;;6.10;3.63;;;;;;;20.70;66.94;101209.72;5012806;28;20245;-65
2022/06/28 06:48:39;;;;;;;7.50;3.23;;;;;;;20.77;65.66;101199.81;5012643;28;20288;-65
2022/06/28 06:51:07;;;;;;;8.30;3.13;;;;;;;20.82;65.25;101203.63;5015845;28;20219;-65
2022/06/28 06:53:35;;;;;;;9.57;3.00;;;;;;;20.90;64.04;101210.72;5012144;28;20241;-65
2022/06/28 06:56:03;;;;;;;6.80;2.40;;;;;;;20.95;63.41;101202.84;5023239;28;20236;-65
2022/06/28 06:58:32;;;;;;;8.27;2.77;;;;;;;21.01;62.68;101196.69;5032389;28;20225;-65
2022/06/28 07:01:00;;;;;;;4.13;2.03;;;;;;;21.06;61.98;101196.06;5032910;28;20212;-65
2022/06/28 07:03:35;;;;;;;7.10;3.53;;;;;;;21.10;60.96;101192.78;5032201;28;20707;-65
2022/06/28 07:06:04;;;;;;;8.53;2.90;;;;;;;21.12;60.28;101197.97;5032747;28;20236;-65
2022/06/28 07:08:32;;;;;;;4.73;2.10;;;;;;;21.16;59.83;101200.06;5032190;28;20208;-65
2022/06/28 07:11:00;;;;;;;5.20;2.30;;;;;;;21.20;57.94;101195.97;5029332;28;20208;-64
2022/06/28 07:13:28;;;;;;;4.73;1.80;;;;;;;21.20;57.27;101203.22;5031328;28;20229;-65
2022/06/28 07:15:55;;;;;;;6.90;2.00;;;;;;;21.23;57.58;101195.56;5028696;28;20215;-65
2022/06/28 07:18:23;;;;;;;5.93;2.20;;;;;;;21.22;57.94;101199.31;5032048;28;20299;-65
2022/06/28 07:20:52;;;;;;;8.77;2.07;;;;;;;21.27;58.71;101188.75;5032274;28;20200;-64
2022/06/28 07:23:21;;;;;;;6.17;1.83;;;;;;;21.33;58.15;101182.56;5038229;28;20254;-65
2022/06/28 07:25:55;;;;;;;2.53;1.40;;;;;;;21.39;57.23;101178.22;5019712;28;20571;-65
2022/06/28 07:28:24;;;;;;;5.30;2.00;;;;;;;21.46;58.01;101172.84;5031790;28;20240;-66
2022/06/28 07:30:52;;;;;;;9.73;2.30;;;;;;;21.53;58.75;101179.09;5032018;28;20232;-65
2022/06/28 07:33:20;;;;;;;4.87;1.77;;;;;;;21.59;58.78;101179.13;5031446;28;20217;-65
2022/06/28 07:35:48;;;;;;;6.27;1.90;;;;;;;21.66;57.40;101184.53;5032397;28;20717;-65
2022/06/28 07:38:16;;;;;;;4.27;1.80;;;;;;;21.70;56.92;101175.84;5031998;28;20219;-65
2022/06/28 07:40:45;;;;;;;2.50;1.50;;;;;;;21.76;57.14;101188.50;5031607;28;20678;-65
2022/06/28 07:43:13;;;;;;;4.23;1.67;;;;;;;21.80;56.63;101183.53;5030827;28;20211;-65
2022/06/28 07:45:40;;;;;;;4.20;1.60;;;;;;;21.86;56.58;101185.41;5031464;28;20656;-65
2022/06/28 07:48:09;;;;;;;5.23;1.43;;;;;;;21.93;56.36;101190.81;5031592;28;20594;-66
2022/06/28 07:53:22;;;;;;;6.57;1.77;;;;;;;21.97;55.39;101179.44;5030722;28;20542;-66
2022/06/28 07:55:51;;;;;;;2.80;1.43;;;;;;;22.03;56.02;101186.72;5031355;28;20662;-65
2022/06/28 07:58:23;;;;;;;6.23;2.27;;;;;;;22.04;55.96;101183.00;5031720;28;20288;-64
2022/06/28 08:00:51;;;;;;;4.50;1.53;;;;;;;22.10;54.14;101176.75;5031393;28;20213;-64
2022/06/28 08:03:18;;;;;;;2.97;1.30;;;;;;;22.14;51.65;101174.47;5030705;28;20211;-64
2022/06/28 08:05:46;;;;;;;3.73;1.37;;;;;;;22.17;51.45;101173.22;5030976;28;20324;-64
2022/06/28 08:08:14;;;;;;;3.10;1.40;;;;;;;22.21;50.12;101175.31;5030779;28;20299;-65
2022/06/28 08:10:42;;;;;;;4.13;1.50;;;;;;;22.24;50.33;101165.97;5031306;28;20209;-65
2022/06/28 08:13:12;;;;;;;3.63;1.37;;;;;;;22.25;51.37;101168.47;5030111;28;20216;-65
2022/06/28 08:15:45;;;;;;;3.17;1.47;;;;;;;22.35;52.23;101170.72;5030821;28;20251;-65
2022/06/28 08:18:13;;;;;;;5.33;1.47;;;;;;;22.43;52.73;101160.53;5030603;28;20209;-66
2022/06/28 08:20:41;;;;;;;6.07;1.07;;;;;;;22.52;49.88;101161.97;5030430;28;20196;-66
2022/06/28 08:23:09;;;;;;;4.13;1.27;;;;;;;22.61;50.54;101159.06;5030044;28;20204;-65
2022/06/28 08:25:37;;;;;;;5.43;1.40;;;;;;;22.68;51.08;101168.00;5030616;28;20280;-65
2022/06/28 08:28:05;;;;;;;3.73;1.27;;;;;;;22.77;49.54;101162.22;5035064;28;20567;-65
2022/06/28 08:30:34;;;;;;;2.73;1.40;;;;;;;22.85;50.27;101164.69;5030876;28;20239;-65
2022/06/28 08:33:02;;;;;;;6.68;1.52;;;;;;;22.87;50.14;101150.91;5030214;28;20307;-65
2022/06/28 08:35:30;;;;;;;2.92;1.42;;;;;;;22.97;50.32;101156.72;5030797;28;20323;-65
2022/06/28 08:37:58;;;;;;;3.20;1.60;;;;;;;23.02;51.41;101148.81;5031677;28;20636;-65
2022/06/28 08:40:27;;;;;;;3.42;1.17;;;;;;;23.09;51.09;101148.78;5030445;28;20711;-64
2022/06/28 08:42:56;;;;;;;4.85;1.73;;;;;;;23.17;51.75;101146.66;5028868;28;20255;-65
2022/06/28 08:45:28;;;;;;;3.50;1.80;;;;;;;23.17;51.25;101141.25;5031004;28;20720;-65
2022/06/28 08:47:58;;;;;;;4.90;1.70;;;;;;;23.22;51.13;101137.91;5031270;28;20292;-64
2022/06/28 08:50:32;;;;;;;5.28;1.70;;;;;;;23.39;50.92;101141.81;5031873;28;20295;-65
2022/06/28 08:53:03;;;;;;;6.85;1.70;;;;;;;23.47;50.73;101136.13;5029243;28;20327;-64
2022/06/28 08:55:32;;;;;;;3.92;1.67;;;;;;;23.53;49.58;101129.88;5031282;28;20507;-64
2022/06/28 08:58:01;;;;;;;5.53;1.75;;;;;;;23.62;49.27;101128.56;5031117;28;20244;-66
2022/06/28 09:00:28;;;;;;;4.25;1.88;;;;;;;23.73;47.47;101123.50;5030678;28;20252;-66
2022/06/28 09:02:58;;;;;;;3.50;1.70;;;;;;;23.73;47.18;101118.09;5032287;28;20208;-65
2022/06/28 09:05:27;;;;;;;5.93;1.85;;;;;;;23.82;47.58;101111.38;5030149;28;20212;-65
2022/06/28 09:07:56;;;;;;;9.32;1.60;;;;;;;23.82;48.36;101105.94;5027961;28;20242;-66
2022/06/28 09:10:24;;;;;;;6.03;1.40;;;;;;;23.90;48.79;101111.09;5026192;28;20220;-65
2022/06/28 09:13:13;;;;;;;3.28;1.67;;;;;;;23.94;48.41;101106.88;5023781;28;20217;-65
2022/06/28 09:15:53;;;;;;;4.85;1.60;;;;;;;24.09;48.03;101112.81;5017238;28;20250;-66
2022/06/28 09:18:23;;;;;;;4.63;1.60;;;;;;;24.20;47.66;101108.53;5031433;28;20292;-65
2022/06/28 09:20:53;;;;;;;4.20;1.45;;;;;;;24.25;47.69;101106.88;5031154;28;20214;-65
2022/06/28 09:23:26;;;;;;;2.60;1.00;;;;;;;24.33;46.58;101106.59;5031076;28;20213;-65
2022/06/28 09:25:55;;;;;;;2.88;1.20;;;;;;;24.35;45.67;101099.06;5031478;28;20201;-65
2022/06/28 09:28:26;;;;;;;4.28;1.13;;;;;;;24.47;45.58;101095.59;5030624;28;20295;-65
2022/06/28 09:31:13;;;;;;;3.20;1.13;;;;;;;24.45;44.91;101087.69;5031678;28;20631;-65
2022/06/28 09:33:44;;;;;;;2.55;1.10;;;;;;;24.55;44.64;101089.88;5033475;28;20212;-65
2022/06/28 09:36:13;;;;;;;2.97;1.20;;;;;;;24.56;44.18;101083.41;5032415;28;20610;-65
2022/06/28 09:38:41;;;;;;;4.03;1.27;;;;;;;24.62;43.70;101074.38;5032878;28;20291;-65
2022/06/28 09:41:23;;;;;;;4.43;0.90;;;;;;;24.73;43.45;101076.31;5030398;28;20209;-66
2022/06/28 09:43:57;;;;;;;5.03;1.15;;;;;;;24.83;43.67;101068.50;5033571;28;20307;-65
2022/06/28 09:46:26;;;;;;;3.67;1.20;;;;;;;24.85;42.26;101063.66;5028577;28;20205;-65
2022/06/28 09:49:01;;;;;;;2.50;1.25;;;;;;;24.93;42.54;101059.84;5034075;28;20241;-66
2022/06/28 09:51:31;;;;;;;4.18;1.02;;;;;;;25.03;42.46;101054.72;5033449;28;20283;-65
2022/06/28 09:54:02;;;;;;;4.55;1.25;;;;;;;25.02;42.12;101058.47;5033093;28;20288;-65
2022/06/28 09:56:53;;;;;;;2.70;0.98;;;;;;;25.13;41.95;101054.16;5033381;28;20233;-65
2022/06/28 09:59:22;;;;;;;2.33;0.80;;;;;;;25.20;41.86;101054.91;5034536;28;20208;-65
2022/06/28 10:01:52;;;;;;;4.97;1.13;;;;;;;25.27;41.67;101048.31;5033570;28;20300;-65
2022/06/28 10:04:22;;;;;;;2.80;1.00;;;;;;;25.27;40.85;101044.78;5032653;28;20205;-65
2022/06/28 10:06:50;;;;;;;6.18;1.20;;;;;;;25.37;40.90;101045.03;5033358;28;20888;-64
2022/06/28 10:09:20;;;;;;;4.10;0.90;;;;;;;25.51;40.53;101043.78;5033663;28;20205;-66
2022/06/28 10:17:49;;;;;;;4.30;1.00;;;;;;;25.68;39.94;101042.06;5032874;28;20211;-65
2022/06/28 10:20:23;;;;;;;4.20;1.13;;;;;;;25.76;40.76;101032.78;5033936;28;20295;-66
2022/06/28 10:22:51;;;;;;;3.25;1.00;;;;;;;25.83;40.49;101028.88;5032570;28;20226;-65
2022/06/28 10:25:25;;;;;;;2.58;0.68;;;;;;;25.96;38.53;101027.81;5033112;28;20247;-65
2022/06/28 10:27:53;;;;;;;2.60;0.95;;;;;;;25.97;38.87;101018.59;5033080;28;20193;-65
2022/06/28 10:30:28;;;;;;;1.92;0.90;;;;;;;26.00;38.87;101009.16;5033037;28;20221;-65
2022/06/28 10:33:02;;;;;;;4.97;1.00;;;;;;;26.08;38.38;101016.94;5032547;28;20295;-65
2022/06/28 10:36:17;;;;;;;3.20;0.85;;;;;;;26.14;37.81;101010.56;5032055;28;20228;-65
2022/06/28 10:39:14;;;;;;;3.28;1.10;;;;;;;26.17;37.87;101007.38;5030024;28;20211;-65
2022/06/28 10:41:44;;;;;;;1.67;0.85;;;;;;;26.18;39.18;101004.41;5031884;28;20211;-66
2022/06/28 10:44:13;;;;;;;2.53;1.00;;;;;;;26.26;38.25;101003.25;5032113;28;20873;-65
2022/06/28 10:46:42;;;;;;;6.63;1.10;;;;;;;26.43;38.71;101000.63;5032660;28;20211;-65
2022/06/28 10:49:12;;;;;;;3.92;1.35;;;;;;;26.37;37.94;101007.84;5032154;28;20212;-65
2022/06/28 10:52:14;;;;;;;3.83;1.00;;;;;;;26.48;37.47;100992.56;5026515;28;20650;-66
2022/06/28 10:55:21;;;;;;;3.08;0.95;;;;;;;26.65;38.38;100993.47;5028353;28;20331;-65
2022/06/28 10:57:49;;;;;;;3.15;0.98;;;;;;;26.75;38.61;100990.13;5032095;28;20643;-65
2022/06/28 11:00:28;;;;;;;4.85;1.05;;;;;;;26.88;38.01;100985.22;5031770;28;20239;-65
2022/06/28 11:03:00;;;;;;;3.05;1.00;;;;;;;26.95;38.31;100977.78;5030137;28;20228;-65
2022/06/28 11:05:47;;;;;;;2.72;0.93;;;;;;;26.98;37.29;100979.19;5029553;28;20209;-65
2022/06/28 11:08:34;;;;;;;6.75;1.10;;;;;;;27.09;36.84;100970.09;5034962;28;20719;-65
2022/06/28 11:11:05;;;;;;;3.30;0.75;;;;;;;27.21;36.44;100980.94;5031829;28;20215;-66
2022/06/28 11:13:33;;;;;;;1.83;0.90;;;;;;;27.11;35.21;100967.97;5031539;28;20239;-65
2022/06/28 11:16:01;;;;;;;3.10;0.90;;;;;;;27.10;35.88;100971.75;5032041;28;20239;-64
2022/06/28 11:18:31;;;;;;;4.18;0.80;;;;;;;27.18;35.77;100968.63;5032209;28;20287;-65
2022/06/28 11:21:00;;;;;;;3.60;0.73;;;;;;;27.24;35.70;100975.84;5031930;28;20270;-66
2022/06/28 11:23:30;;;;;;;4.85;0.88;;;;;;;27.39;35.22;100974.44;5030865;28;20212;-65
2022/06/28 11:29:02;;;;;;;7.93;0.93;;;;;;;27.47;34.60;100965.88;5031735;28;20208;-65
2022/06/28 11:31:39;;;;;;;4.03;0.88;;;;;;;27.38;34.80;100961.91;5030457;28;20674;-65
2022/06/28 11:34:08;;;;;;;2.40;1.05;;;;;;;27.54;36.17;100959.19;5028892;28;20270;-65
2022/06/28 11:36:36;;;;;;;2.70;0.93;;;;;;;27.69;36.31;100942.28;5031846;28;20323;-65
2022/06/28 11:39:04;;;;;;;3.25;1.10;;;;;;;27.72;35.71;100919.97;5031536;28;20223;-65
2022/06/28 11:41:33;;;;;;;2.70;0.85;;;;;;;27.76;35.77;100923.88;5033903;28;20207;-65
2022/06/28 11:44:04;;;;;;;3.45;0.80;;;;;;;27.82;35.24;100905.66;5030778;28;20566;-65
2022/06/28 11:46:35;;;;;;;3.10;0.90;;;;;;;27.84;33.86;100903.53;5031342;28;20204;-64
2022/06/28 11:49:03;;;;;;;3.15;0.90;;;;;;;27.97;34.69;100897.72;5031601;28;20291;-65
2022/06/28 11:51:31;;;;;;;5.25;1.20;;;;;;;27.81;34.45;100888.50;5027844;28;20212;-64
2022/06/28 11:54:00;;;;;;;0.95;0.63;;;;;;;27.88;35.14;100889.13;5030176;28;20204;-64
2022/06/28 11:56:43;;;;;;;5.70;0.95;;;;;;;27.91;34.01;100875.00;5024268;28;20615;-64
2022/06/28 11:59:13;;;;;;;5.28;1.10;;;;;;;27.96;35.11;100888.72;5004123;28;20569;-65